sensor_id;sensor_type;location;lat;lon;timestamp;P1;durP1;ratioP1;P2;durP2;ratioP2
56593;SDS011;42474;51.660;5.824;2022-09-28T00:03:32;5.3;;;4.2;;
56593;SDS011;42474;51.660;5.824;2022-09-28T00:08:32;5.9;;;4.5;;
56593;SDS011;42474;51.660;5.824;2022-09-28T00:13:32;7.6;;;4.6;;
56593;SDS011;42474;51.660;5.824;2022-09-28T00:18:32;7.2;;;4.3;;
56593;SDS011;42474;51.660;5.824;2022-09-28T00:23:45;5.6;;;4.6;;
56593;SDS011;42474;51.660;5.824;2022-09-28T00:28:57;6.9;;;4.7;;
56593;SDS011;42474;51.660;5.824;2022-09-28T00:38:32;5.6;;;4.5;;
56593;SDS011;42474;51.660;5.824;2022-09-28T00:48:50;6.5;;;5.2;;
56593;SDS011;42474;51.660;5.824;2022-09-28T00:58:34;8.1;;;6.0;;
56593;SDS011;42474;51.660;5.824;2022-09-28T01:18:38;10.3;;;7.4;;
56593;SDS011;42474;51.660;5.824;2022-09-28T01:28:58;9.6;;;7.5;;
56593;SDS011;42474;51.660;5.824;2022-09-28T01:39:22;11.7;;;7.9;;
56593;SDS011;42474;51.660;5.824;2022-09-28T01:48:34;12.8;;;8.2;;
56593;SDS011;42474;51.660;5.824;2022-09-28T01:59:09;9.8;;;7.8;;
56593;SDS011;42474;51.660;5.824;2022-09-28T02:19:29;12.3;;;7.9;;
56593;SDS011;42474;51.660;5.824;2022-09-28T02:28:32;10.1;;;6.9;;
56593;SDS011;42474;51.660;5.824;2022-09-28T02:59:44;11.2;;;7.2;;
56593;SDS011;42474;51.660;5.824;2022-09-28T03:08:33;10.3;;;7.6;;
56593;SDS011;42474;51.660;5.824;2022-09-28T03:18:32;12.3;;;8.7;;
56593;SDS011;42474;51.660;5.824;2022-09-28T03:38:32;11.9;;;8.9;;
56593;SDS011;42474;51.660;5.824;2022-09-28T03:48:33;11.3;;;8.0;;
56593;SDS011;42474;51.660;5.824;2022-09-28T03:58:32;13.4;;;7.8;;
56593;SDS011;42474;51.660;5.824;2022-09-28T04:08:32;10.7;;;7.5;;
56593;SDS011;42474;51.660;5.824;2022-09-28T04:28:32;8.4;;;6.4;;
56593;SDS011;42474;51.660;5.824;2022-09-28T04:49:22;7.3;;;4.8;;
56593;SDS011;42474;51.660;5.824;2022-09-28T04:58:33;6.6;;;4.6;;
56593;SDS011;42474;51.660;5.824;2022-09-28T05:08:33;6.0;;;4.4;;
56593;SDS011;42474;51.660;5.824;2022-09-28T05:18:32;6.8;;;4.3;;
56593;SDS011;42474;51.660;5.824;2022-09-28T05:28:32;7.2;;;4.6;;
56593;SDS011;42474;51.660;5.824;2022-09-28T05:38:32;5.6;;;4.0;;
56593;SDS011;42474;51.660;5.824;2022-09-28T05:59:21;4.3;;;3.0;;
56593;SDS011;42474;51.660;5.824;2022-09-28T06:08:32;3.0;;;2.6;;
56593;SDS011;42474;51.660;5.824;2022-09-28T06:18:32;6.4;;;2.9;;
56593;SDS011;42474;51.660;5.824;2022-09-28T06:29:22;3.7;;;2.5;;
56593;SDS011;42474;51.660;5.824;2022-09-28T06:38:57;4.5;;;2.5;;
56593;SDS011;42474;51.660;5.824;2022-09-28T06:48:32;3.7;;;2.0;;
56593;SDS011;42474;51.660;5.824;2022-09-28T06:58:32;3.4;;;1.8;;
56593;SDS011;42474;51.660;5.824;2022-09-28T07:08:32;2.1;;;1.5;;
56593;SDS011;42474;51.660;5.824;2022-09-28T07:18:32;3.1;;;1.6;;
56593;SDS011;42474;51.660;5.824;2022-09-28T07:28:32;2.6;;;1.5;;
56593;SDS011;42474;51.660;5.824;2022-09-28T07:38:32;1.9;;;1.5;;
56593;SDS011;42474;51.660;5.824;2022-09-28T07:48:32;3.5;;;1.6;;
56593;SDS011;42474;51.660;5.824;2022-09-28T07:58:32;7.3;;;1.8;;
56593;SDS011;42474;51.660;5.824;2022-09-28T08:08:32;1.9;;;1.4;;
56593;SDS011;42474;51.660;5.824;2022-09-28T08:18:32;2.4;;;1.6;;
56593;SDS011;42474;51.660;5.824;2022-09-28T08:28:32;4.1;;;2.0;;
56593;SDS011;42474;51.660;5.824;2022-09-28T08:38:32;3.4;;;1.7;;
56593;SDS011;42474;51.660;5.824;2022-09-28T08:48:38;3.4;;;1.5;;
56593;SDS011;42474;51.660;5.824;2022-09-28T08:58:34;4.7;;;1.6;;
56593;SDS011;42474;51.660;5.824;2022-09-28T09:08:58;2.8;;;1.7;;
56593;SDS011;42474;51.660;5.824;2022-09-28T09:19:04;2.6;;;1.5;;
56593;SDS011;42474;51.660;5.824;2022-09-28T09:28:49;2.3;;;1.6;;
56593;SDS011;42474;51.660;5.824;2022-09-28T09:39:44;5.3;;;2.0;;
56593;SDS011;42474;51.660;5.824;2022-09-28T09:49:14;2.7;;;2.3;;
56593;SDS011;42474;51.660;5.824;2022-09-28T09:58:33;2.6;;;1.8;;
56593;SDS011;42474;51.660;5.824;2022-09-28T10:08:33;6.1;;;1.7;;
56593;SDS011;42474;51.660;5.824;2022-09-28T10:18:33;1.9;;;1.0;;
56593;SDS011;42474;51.660;5.824;2022-09-28T10:28:38;2.0;;;1.0;;
56593;SDS011;42474;51.660;5.824;2022-09-28T10:38:32;2.3;;;1.3;;
56593;SDS011;42474;51.660;5.824;2022-09-28T10:48:45;2.0;;;1.5;;
56593;SDS011;42474;51.660;5.824;2022-09-28T10:58:35;2.9;;;1.4;;
56593;SDS011;42474;51.660;5.824;2022-09-28T11:08:38;2.6;;;1.2;;
56593;SDS011;42474;51.660;5.824;2022-09-28T11:18:33;2.0;;;1.2;;
56593;SDS011;42474;51.660;5.824;2022-09-28T11:28:35;1.7;;;1.3;;
56593;SDS011;42474;51.660;5.824;2022-09-28T11:38:47;1.9;;;0.9;;
56593;SDS011;42474;51.660;5.824;2022-09-28T11:48:38;2.4;;;1.3;;
56593;SDS011;42474;51.660;5.824;2022-09-28T11:58:34;3.0;;;1.1;;
56593;SDS011;42474;51.660;5.824;2022-09-28T12:08:40;1.6;;;1.1;;
56593;SDS011;42474;51.660;5.824;2022-09-28T12:18:34;1.8;;;1.2;;
56593;SDS011;42474;51.660;5.824;2022-09-28T12:28:43;2.2;;;1.5;;
56593;SDS011;42474;51.660;5.824;2022-09-28T12:39:17;2.4;;;1.4;;
56593;SDS011;42474;51.660;5.824;2022-09-28T12:50:15;8.2;;;1.4;;
56593;SDS011;42474;51.660;5.824;2022-09-28T13:00:24;1.6;;;1.1;;
56593;SDS011;42474;51.660;5.824;2022-09-28T13:10:30;1.2;;;0.9;;
56593;SDS011;42474;51.660;5.824;2022-09-28T13:19:53;1.8;;;1.0;;
56593;SDS011;42474;51.660;5.824;2022-09-28T13:28:32;2.8;;;1.1;;
56593;SDS011;42474;51.660;5.824;2022-09-28T13:38:47;2.1;;;1.1;;
56593;SDS011;42474;51.660;5.824;2022-09-28T13:48:36;4.4;;;1.8;;
56593;SDS011;42474;51.660;5.824;2022-09-28T13:58:49;0.8;;;0.5;;
56593;SDS011;42474;51.660;5.824;2022-09-28T14:09:05;1.5;;;0.7;;
56593;SDS011;42474;51.660;5.824;2022-09-28T14:18:34;0.9;;;0.5;;
56593;SDS011;42474;51.660;5.824;2022-09-28T14:29:06;1.5;;;0.5;;
56593;SDS011;42474;51.660;5.824;2022-09-28T14:38:33;0.9;;;0.6;;
56593;SDS011;42474;51.660;5.824;2022-09-28T14:48:43;0.7;;;0.6;;
56593;SDS011;42474;51.660;5.824;2022-09-28T14:58:33;2.3;;;1.0;;
56593;SDS011;42474;51.660;5.824;2022-09-28T15:08:36;1.7;;;0.8;;
56593;SDS011;42474;51.660;5.824;2022-09-28T15:19:11;0.9;;;0.6;;
56593;SDS011;42474;51.660;5.824;2022-09-28T15:28:33;2.6;;;0.8;;
56593;SDS011;42474;51.660;5.824;2022-09-28T15:38:33;1.1;;;0.7;;
56593;SDS011;42474;51.660;5.824;2022-09-28T15:48:41;1.0;;;0.6;;
56593;SDS011;42474;51.660;5.824;2022-09-28T15:58:32;1.6;;;0.5;;
56593;SDS011;42474;51.660;5.824;2022-09-28T16:18:32;0.8;;;0.8;;
56593;SDS011;42474;51.660;5.824;2022-09-28T16:28:49;1.5;;;0.9;;
56593;SDS011;42474;51.660;5.824;2022-09-28T16:38:32;1.1;;;0.6;;
56593;SDS011;42474;51.660;5.824;2022-09-28T16:48:33;1.6;;;0.7;;
56593;SDS011;42474;51.660;5.824;2022-09-28T16:58:33;1.0;;;0.8;;
56593;SDS011;42474;51.660;5.824;2022-09-28T17:18:33;1.4;;;1.3;;
56593;SDS011;42474;51.660;5.824;2022-09-28T17:28:34;1.8;;;1.6;;
56593;SDS011;42474;51.660;5.824;2022-09-28T17:38:32;2.8;;;1.5;;
56593;SDS011;42474;51.660;5.824;2022-09-28T17:48:33;3.1;;;2.1;;
56593;SDS011;42474;51.660;5.824;2022-09-28T17:58:32;2.1;;;1.6;;
56593;SDS011;42474;51.660;5.824;2022-09-28T18:08:33;3.3;;;2.7;;
56593;SDS011;42474;51.660;5.824;2022-09-28T18:18:33;4.6;;;2.8;;
56593;SDS011;42474;51.660;5.824;2022-09-28T18:28:33;3.4;;;2.6;;
56593;SDS011;42474;51.660;5.824;2022-09-28T18:38:33;2.9;;;2.6;;
56593;SDS011;42474;51.660;5.824;2022-09-28T18:48:33;3.9;;;3.1;;
56593;SDS011;42474;51.660;5.824;2022-09-28T18:58:33;4.2;;;3.0;;
56593;SDS011;42474;51.660;5.824;2022-09-28T19:08:32;3.8;;;3.2;;
56593;SDS011;42474;51.660;5.824;2022-09-28T19:18:33;3.2;;;2.7;;
56593;SDS011;42474;51.660;5.824;2022-09-28T19:28:33;2.8;;;2.3;;
56593;SDS011;42474;51.660;5.824;2022-09-28T19:38:33;2.9;;;2.2;;
56593;SDS011;42474;51.660;5.824;2022-09-28T19:48:33;2.6;;;2.4;;
56593;SDS011;42474;51.660;5.824;2022-09-28T20:08:33;3.5;;;3.0;;
56593;SDS011;42474;51.660;5.824;2022-09-28T20:18:33;3.9;;;2.8;;
56593;SDS011;42474;51.660;5.824;2022-09-28T20:38:33;4.5;;;2.9;;
56593;SDS011;42474;51.660;5.824;2022-09-28T20:48:33;3.9;;;3.4;;
56593;SDS011;42474;51.660;5.824;2022-09-28T20:58:33;3.6;;;3.2;;
56593;SDS011;42474;51.660;5.824;2022-09-28T21:08:33;3.8;;;3.2;;
56593;SDS011;42474;51.660;5.824;2022-09-28T21:18:33;4.1;;;3.3;;
56593;SDS011;42474;51.660;5.824;2022-09-28T21:38:33;3.7;;;3.2;;
56593;SDS011;42474;51.660;5.824;2022-09-28T21:48:33;3.3;;;2.9;;
56593;SDS011;42474;51.660;5.824;2022-09-28T21:58:33;4.1;;;3.2;;
56593;SDS011;42474;51.660;5.824;2022-09-28T22:08:33;3.7;;;2.8;;
56593;SDS011;42474;51.660;5.824;2022-09-28T22:18:58;4.6;;;3.0;;
56593;SDS011;42474;51.660;5.824;2022-09-28T22:28:33;4.3;;;3.1;;
56593;SDS011;42474;51.660;5.824;2022-09-28T22:38:33;3.4;;;2.9;;
56593;SDS011;42474;51.660;5.824;2022-09-28T22:48:33;3.9;;;3.2;;
56593;SDS011;42474;51.660;5.824;2022-09-28T22:58:33;6.0;;;4.0;;
56593;SDS011;42474;51.660;5.824;2022-09-28T23:08:33;5.7;;;4.7;;
56593;SDS011;42474;51.660;5.824;2022-09-28T23:18:35;6.5;;;5.0;;
56593;SDS011;42474;51.660;5.824;2022-09-28T23:28:33;5.6;;;4.1;;
56593;SDS011;42474;51.660;5.824;2022-09-28T23:38:33;7.6;;;5.1;;
56593;SDS011;42474;51.660;5.824;2022-09-28T23:48:33;7.9;;;5.3;;
56593;SDS011;42474;51.660;5.824;2022-09-28T23:58:58;8.4;;;5.9;;
